Time;durP1;ratioP1;P1;durP2;ratioP2;P2;SDS_P1;SDS_P2;PMS_P1;PMS_P2;Temp;Humidity;BMP_temperature;BMP_pressure;BME280_temperature;BME280_humidity;BME280_pressure;Samples;Min_cycle;Max_cycle;Signal;HPM_P1;HPM_P2
2023/03/17 00:01:58;;;;;;;8.88;7.38;;;10.70;99.90;;;10.81;68.31;100531.94;5053547;28;20541;-66
2023/03/17 00:04:27;;;;;;;7.70;6.87;;;10.70;99.90;;;10.88;68.04;100538.91;5053492;28;20056;-66
2023/03/17 00:06:56;;;;;;;8.70;6.95;;;10.70;99.90;;;10.88;68.47;100529.22;5054633;28;20292;-66
2023/03/17 00:09:25;;;;;;;7.00;6.30;;;10.70;99.90;;;10.86;68.47;100517.75;5054721;28;20513;-66
2023/03/17 00:11:53;;;;;;;8.45;6.82;;;10.70;99.90;;;10.87;68.77;100526.59;5053474;28;20055;-66
2023/03/17 00:14:21;;;;;;;8.00;6.70;;;10.70;99.90;;;10.84;68.75;100527.47;5054705;28;20080;-66
2023/03/17 00:16:52;;;;;;;8.35;6.55;;;10.70;99.90;;;10.79;68.86;100518.72;5054493;28;20040;-66
2023/03/17 00:19:28;;;;;;;8.27;6.85;;;10.60;99.90;;;10.42;68.68;100455.66;5054792;28;20448;-66
2023/03/17 00:21:57;;;;;;;8.63;6.93;;;10.60;99.90;;;10.77;69.05;100520.53;5054545;28;20077;-66
2023/03/17 00:24:26;;;;;;;9.15;6.68;;;10.60;99.90;;;10.80;69.05;100514.31;5054291;28;20080;-66
2023/03/17 00:26:54;;;;;;;9.90;7.20;;;10.60;99.90;;;10.81;69.22;100526.66;5053019;28;20053;-66
2023/03/17 00:29:24;;;;;;;8.80;6.50;;;10.60;99.90;;;10.78;68.98;100553.16;5054268;28;20099;-66
2023/03/17 00:31:53;;;;;;;9.85;6.32;;;10.60;99.90;;;10.87;68.79;100534.53;5054530;28;20088;-66
2023/03/17 00:34:24;;;;;;;7.78;6.32;;;10.70;99.90;;;10.89;68.56;100532.75;5053154;28;20508;-66
2023/03/17 00:36:52;;;;;;;7.90;6.73;;;10.70;99.90;;;10.81;68.62;100524.00;5054372;28;20490;-66
2023/03/17 00:39:24;;;;;;;6.90;6.20;;;10.70;99.90;;;10.94;68.74;100522.97;5054339;28;20041;-66
2023/03/17 00:41:54;;;;;;;9.07;6.88;;;10.80;99.90;;;11.00;68.37;100509.66;5052762;28;20056;-66
2023/03/17 00:44:23;;;;;;;7.43;6.70;;;10.80;99.90;;;10.93;68.27;100501.81;5053021;28;20045;-66
2023/03/17 00:46:51;;;;;;;7.05;6.18;;;10.80;99.90;;;10.96;68.71;100510.59;5054199;28;20098;-66
2023/03/17 00:49:24;;;;;;;7.30;6.60;;;10.70;99.90;;;10.89;68.68;100515.09;5052718;28;20052;-66
2023/03/17 00:51:53;;;;;;;7.82;6.80;;;10.70;99.90;;;10.95;68.85;100510.63;5053989;28;20044;-66
2023/03/17 00:54:22;;;;;;;9.50;7.15;;;10.70;99.90;;;10.98;68.39;100508.81;5053836;28;20037;-66
2023/03/17 00:56:51;;;;;;;7.75;6.75;;;10.80;99.90;;;10.41;68.03;100401.06;5054043;28;20053;-66
2023/03/17 00:59:26;;;;;;;8.35;6.78;;;10.80;99.90;;;11.05;67.90;100529.03;5052666;28;20049;-66
2023/03/17 01:01:55;;;;;;;7.82;7.07;;;10.80;99.90;;;11.09;68.07;100528.06;5053859;28;20095;-66
2023/03/17 01:04:25;;;;;;;7.40;6.47;;;10.90;99.90;;;11.17;67.93;100525.34;5053688;28;20440;-66
2023/03/17 01:06:54;;;;;;;9.43;6.78;;;10.90;99.90;;;11.12;67.89;100528.06;5052723;28;20072;-67
2023/03/17 01:09:27;;;;;;;9.00;6.95;;;10.90;99.90;;;11.15;67.78;100517.41;5053716;28;20367;-66
2023/03/17 01:11:55;;;;;;;8.18;6.38;;;10.90;99.90;;;11.17;67.55;100523.56;5052351;28;20072;-67
2023/03/17 01:14:24;;;;;;;9.02;6.60;;;10.90;99.90;;;11.13;67.71;100516.56;5053615;28;20045;-66
2023/03/17 01:16:54;;;;;;;7.23;6.37;;;10.90;99.90;;;11.09;67.73;100508.69;5053503;28;20056;-66
2023/03/17 01:19:23;;;;;;;8.70;7.22;;;10.80;99.90;;;10.66;67.56;100428.97;5053363;28;20107;-66
2023/03/17 01:21:52;;;;;;;7.13;6.40;;;10.90;99.90;;;11.23;67.31;100510.25;5053227;28;20044;-66
2023/03/17 01:24:21;;;;;;;9.35;6.60;;;11.00;99.90;;;11.15;67.55;100501.53;5053258;28;20084;-66
2023/03/17 01:26:49;;;;;;;7.63;6.82;;;10.90;99.90;;;11.09;67.57;100501.59;5053170;28;20131;-66
2023/03/17 01:29:18;;;;;;;10.38;6.80;;;10.80;99.90;;;11.14;67.68;100498.91;5051901;28;20057;-66
2023/03/17 01:31:46;;;;;;;9.38;6.38;;;10.80;99.90;;;11.22;67.36;100495.28;5053083;28;20132;-66
2023/03/17 01:34:15;;;;;;;7.80;6.53;;;10.90;99.90;;;10.94;68.30;100493.84;5053314;28;20077;-66
2023/03/17 01:36:43;;;;;;;7.82;6.50;;;10.70;99.90;;;10.99;68.11;100484.13;5053192;28;20068;-67
2023/03/17 01:48:27;;;;;;;11.32;6.30;;;10.60;99.90;;;10.78;68.78;100479.94;5124244;23;20145;-72
2023/03/17 01:50:57;;;;;;;10.95;7.00;;;10.50;99.90;;;10.81;69.29;100481.69;4991975;28;20059;-72
2023/03/17 01:53:27;;;;;;;8.68;6.65;;;10.50;99.90;;;10.17;69.09;100382.81;4991927;28;20069;-72
2023/03/17 01:55:57;;;;;;;7.57;6.50;;;10.50;99.90;;;10.81;69.21;100473.75;4991899;28;20408;-72
2023/03/17 01:58:26;;;;;;;8.45;7.25;;;10.50;99.90;;;10.03;69.02;100323.03;4990549;28;20042;-72
2023/03/17 02:00:55;;;;;;;8.13;7.07;;;10.60;99.90;;;10.88;68.89;100470.13;4990632;28;20046;-72
2023/03/17 02:03:26;;;;;;;7.28;6.03;;;10.60;99.90;;;10.22;68.92;100381.00;4991974;28;20041;-71
2023/03/17 02:05:56;;;;;;;8.35;6.13;;;10.50;99.90;;;10.91;68.56;100475.38;4991950;28;20049;-72
2023/03/17 02:08:25;;;;;;;9.77;6.60;;;10.60;99.90;;;10.99;68.37;100462.06;4990197;28;20137;-72
2023/03/17 02:10:56;;;;;;;8.45;6.15;;;10.60;99.90;;;11.12;68.26;100464.53;4990517;28;20281;-71
2023/03/17 02:13:24;;;;;;;;;;;10.70;99.90;;;11.16;67.12;100465.34;4992108;28;20046;-72
2023/03/17 02:15:55;;;;;;;7.30;6.40;;;10.80;99.90;;;11.01;67.18;100417.94;4991797;28;19933;-71
2023/03/17 02:18:26;;;;;;;9.52;6.53;;;10.90;99.90;;;11.28;67.15;100460.78;4991999;28;20054;-71
2023/03/17 02:21:32;;;;;;;7.30;6.47;;;11.00;99.90;;;11.34;66.61;100459.81;4990211;28;20090;-71
2023/03/17 02:24:04;;;;;;;7.97;6.53;;;11.10;99.90;;;11.30;66.64;100452.81;4991846;28;20102;-72
2023/03/17 02:26:35;;;;;;;8.15;6.55;;;11.10;99.90;;;11.21;67.00;100467.03;4991663;28;20124;-72
2023/03/17 02:29:05;;;;;;;9.57;6.30;;;11.00;99.90;;;11.20;67.14;100464.41;4991541;28;20213;-71
2023/03/17 02:31:34;;;;;;;7.32;6.20;;;11.00;99.90;;;11.21;66.71;100458.22;4991919;28;20038;-71
2023/03/17 02:34:03;;;;;;;8.45;6.85;;;11.00;99.90;;;11.19;66.94;100465.34;4991641;28;20109;-71
2023/03/17 02:36:33;;;;;;;8.07;6.55;;;11.00;99.90;;;11.29;66.62;100467.81;4991635;28;20128;-71
2023/03/17 02:39:01;;;;;;;7.70;6.60;;;11.10;99.90;;;11.18;66.74;100453.88;4991737;28;20042;-71
2023/03/17 02:41:30;;;;;;;7.18;6.38;;;11.10;99.90;;;11.25;66.82;100471.41;4991550;28;20043;-72
2023/03/17 02:44:00;;;;;;;9.05;6.57;;;11.10;99.90;;;10.52;66.59;100341.84;4991768;28;20046;-71
2023/03/17 02:46:28;;;;;;;10.63;6.85;;;11.10;99.90;;;11.18;66.63;100455.63;4990304;28;20112;-71
2023/03/17 02:49:00;;;;;;;7.32;6.30;;;11.00;99.90;;;11.19;66.69;100462.69;4990052;28;20490;-71
2023/03/17 02:51:29;;;;;;;7.45;6.50;;;11.00;99.90;;;11.13;66.66;100460.13;4991634;28;20047;-71
2023/03/17 02:53:59;;;;;;;6.72;6.03;;;11.00;99.90;;;11.14;66.70;100461.84;4992106;28;20054;-71
2023/03/17 02:56:28;;;;;;;10.60;6.07;;;11.00;99.90;;;11.10;66.72;100455.72;4991775;28;20039;-71
2023/03/17 02:58:56;;;;;;;6.90;6.20;;;10.90;99.90;;;11.14;66.84;100452.16;4991538;28;20496;-71
2023/03/17 03:01:25;;;;;;;8.15;6.07;;;10.90;99.90;;;11.13;66.82;100454.81;4991573;28;20118;-71
2023/03/17 03:03:54;;;;;;;7.75;6.20;;;10.90;99.90;;;11.13;67.26;100455.69;4991862;28;20519;-71
2023/03/17 03:06:23;;;;;;;8.10;6.13;;;11.00;99.90;;;11.18;66.73;100453.88;4991678;28;20052;-71
2023/03/17 03:08:52;;;;;;;7.90;6.15;;;11.00;99.90;;;11.17;66.28;100477.72;4991301;28;20046;-71
2023/03/17 03:11:22;;;;;;;8.23;6.45;;;11.00;99.90;;;11.21;66.58;100479.41;4991253;28;20054;-71
2023/03/17 03:13:50;;;;;;;7.17;6.33;;;11.00;99.90;;;11.12;66.98;100477.75;4991423;28;20173;-71
2023/03/17 03:16:19;;;;;;;7.85;6.05;;;11.00;99.90;;;11.16;66.70;100474.19;4991391;28;20038;-72
2023/03/17 03:18:48;;;;;;;7.43;6.22;;;11.10;99.90;;;11.21;66.30;100458.22;4991457;28;20282;-72
2023/03/17 03:21:16;;;;;;;8.13;6.15;;;11.00;99.90;;;11.29;66.28;100465.16;4991215;28;20121;-72
2023/03/17 03:23:44;;;;;;;7.97;6.50;;;11.10;99.90;;;11.46;66.11;100464.91;4991698;28;20043;-71
2023/03/17 03:26:13;;;;;;;7.00;6.28;;;11.20;99.90;;;11.55;65.47;100478.03;4991501;28;20058;-72
2023/03/17 03:28:42;;;;;;;7.38;6.63;;;11.30;99.90;;;11.58;65.12;100473.56;4990934;28;20054;-72
2023/03/17 03:31:12;;;;;;;9.27;6.28;;;11.40;99.90;;;11.53;65.05;100472.78;4994273;28;20057;-71
2023/03/17 03:33:41;;;;;;;6.65;5.95;;;11.40;99.90;;;11.54;65.16;100482.47;4994589;28;20062;-71
2023/03/17 03:36:10;;;;;;;6.93;6.25;;;11.40;99.90;;;11.46;65.23;100476.41;4993398;28;20046;-72
2023/03/17 03:38:38;;;;;;;9.00;6.22;;;11.30;99.90;;;11.52;65.16;100484.25;4994570;28;20038;-72
2023/03/17 03:41:07;;;;;;;8.30;6.35;;;11.30;99.90;;;11.47;65.22;100482.56;4994887;28;20043;-72
2023/03/17 03:43:36;;;;;;;8.07;6.25;;;11.40;99.90;;;11.43;65.43;100491.44;4994618;28;20388;-72
2023/03/17 03:46:05;;;;;;;14.70;6.55;;;11.30;99.90;;;11.49;65.20;100510.78;4994444;28;20492;-72
2023/03/17 03:48:34;;;;;;;7.65;6.32;;;11.30;99.90;;;11.62;65.28;100496.47;4994542;28;20448;-71
2023/03/17 03:51:03;;;;;;;9.40;5.93;;;11.40;99.90;;;11.59;65.70;100495.66;4994352;28;20053;-72
2023/03/17 03:53:32;;;;;;;7.15;6.45;;;11.50;99.90;;;10.92;65.64;100394.25;4994365;28;20049;-72
2023/03/17 03:56:00;;;;;;;7.88;5.80;;;11.40;99.90;;;11.58;65.88;100500.06;4994605;28;20041;-72
2023/03/17 03:58:29;;;;;;;6.47;5.88;;;11.40;99.90;;;11.61;65.53;100502.66;4994683;28;20042;-71
2023/03/17 04:00:57;;;;;;;6.95;5.90;;;11.50;99.90;;;11.61;66.00;100486.75;4994524;28;20043;-72
2023/03/17 04:03:27;;;;;;;8.88;6.68;;;11.40;99.90;;;11.58;65.90;100493.88;4994276;28;20121;-71
2023/03/17 04:05:55;;;;;;;8.70;6.30;;;11.40;99.90;;;11.60;65.98;100487.66;4994521;28;20038;-72
2023/03/17 04:08:24;;;;;;;8.20;5.75;;;11.50;99.90;;;11.71;65.80;100480.47;4994517;28;20042;-70
2023/03/17 04:10:52;;;;;;;6.53;5.93;;;11.50;99.90;;;11.71;66.04;100484.91;4994005;28;20417;-72
2023/03/17 04:13:21;;;;;;;6.13;5.53;;;11.50;99.90;;;11.47;65.70;100456.09;4994240;28;20077;-71
2023/03/17 04:15:50;;;;;;;7.47;5.72;;;11.60;99.90;;;11.84;65.76;100501.47;4994141;28;20042;-72
2023/03/17 04:18:19;;;;;;;6.57;5.55;;;11.60;99.90;;;11.86;65.54;100500.56;4993875;28;20054;-71
2023/03/17 04:20:48;;;;;;;7.80;5.97;;;11.70;99.90;;;11.93;64.96;100490.72;4992608;28;20054;-72
2023/03/17 04:23:17;;;;;;;8.07;5.90;;;11.80;99.90;;;11.98;65.22;100481.78;4994007;28;20061;-72
2023/03/17 04:25:46;;;;;;;10.40;5.82;;;11.80;99.90;;;12.09;64.82;100487.81;4993704;28;20034;-72
2023/03/17 04:28:14;;;;;;;8.50;5.70;;;11.80;99.90;;;11.35;64.65;100360.94;4993694;28;20109;-72
2023/03/17 04:30:43;;;;;;;6.50;5.38;;;11.90;99.90;;;11.42;64.33;100383.81;4993614;28;20042;-72
2023/03/17 04:33:11;;;;;;;6.88;6.13;;;11.90;99.90;;;12.23;64.32;100487.59;4993697;28;20052;-72
2023/03/17 04:35:40;;;;;;;8.13;6.05;;;12.00;99.90;;;12.24;64.11;100484.91;4993579;28;20555;-72
2023/03/17 04:38:12;;;;;;;6.38;5.78;;;12.00;99.90;;;12.36;63.76;100495.28;4993703;28;20376;-71
2023/03/17 04:40:41;;;;;;;6.25;5.65;;;12.20;99.90;;;12.25;63.70;100467.22;4993393;28;20054;-72
2023/03/17 04:43:09;;;;;;;9.23;5.88;;;12.10;99.90;;;12.42;63.64;100486.34;4993508;28;20042;-72
2023/03/17 04:45:38;;;;;;;10.80;6.05;;;12.20;99.90;;;12.43;63.63;100480.13;4993177;28;20038;-72
2023/03/17 04:48:06;;;;;;;9.70;5.95;;;12.20;99.90;;;12.45;63.64;100495.13;4993226;28;20050;-71
2023/03/17 04:50:35;;;;;;;7.13;5.80;;;12.20;99.90;;;12.41;63.82;100492.53;4993359;28;20108;-72
2023/03/17 04:53:03;;;;;;;7.65;5.93;;;12.20;99.90;;;12.51;63.74;100487.06;4993625;28;20049;-72
2023/03/17 04:55:33;;;;;;;8.32;5.70;;;12.20;99.90;;;12.46;63.59;100458.88;4993391;28;20590;-72
2023/03/17 04:58:01;;;;;;;7.33;6.63;;;12.30;99.90;;;12.44;63.47;100463.31;4993192;28;20050;-72
2023/03/17 05:00:32;;;;;;;8.25;5.85;;;12.20;99.90;;;12.35;63.71;100434.34;4992885;28;20467;-72
2023/03/17 05:03:00;;;;;;;;;;;12.20;99.90;;;12.18;64.49;100465.56;4993485;28;20049;-72
2023/03/17 05:05:29;;;;;;;7.57;6.03;;;12.00;99.90;;;12.09;64.72;100474.56;4992832;28;20039;-71
2023/03/17 05:07:57;;;;;;;6.72;5.63;;;11.90;99.90;;;12.06;65.28;100468.44;4992764;28;20074;-71
2023/03/17 05:10:25;;;;;;;8.95;6.43;;;11.90;99.90;;;12.11;64.97;100440.06;4991448;28;20046;-72
2023/03/17 05:12:55;;;;;;;8.90;5.63;;;11.90;99.90;;;12.29;64.68;100424.69;4992681;28;20137;-71
2023/03/17 05:15:23;;;;;;;8.00;5.63;;;12.00;99.90;;;12.40;64.01;100429.81;4992937;28;20415;-72
2023/03/17 05:17:52;;;;;;;6.57;5.88;;;12.10;99.90;;;12.47;63.99;100427.00;4991093;28;20081;-72
2023/03/17 05:20:20;;;;;;;6.28;5.78;;;12.20;99.90;;;11.96;64.97;100408.53;4992574;28;20057;-72
2023/03/17 05:22:48;;;;;;;7.35;6.63;;;11.90;99.90;;;11.98;65.35;100457.09;4992581;28;20038;-71
2023/03/17 05:25:17;;;;;;;9.80;6.63;;;11.70;99.90;;;11.95;65.28;100483.63;4992608;28;20496;-72
2023/03/17 05:27:45;;;;;;;9.50;6.70;;;11.70;99.90;;;11.98;65.65;100483.59;4992560;28;20050;-71
2023/03/17 05:30:15;;;;;;;11.88;6.20;;;11.70;99.90;;;11.92;65.38;100471.31;4992314;28;20045;-72
2023/03/17 05:32:44;;;;;;;9.60;6.88;;;11.70;99.90;;;11.97;65.31;100474.75;4992476;28;20387;-71
2023/03/17 05:35:13;;;;;;;8.63;6.20;;;11.70;99.90;;;12.11;65.43;100456.84;4992441;28;20058;-71
2023/03/17 05:37:41;;;;;;;7.70;6.30;;;11.80;99.90;;;11.89;65.46;100449.25;4992583;28;20042;-72
2023/03/17 05:40:11;;;;;;;7.10;6.40;;;11.70;99.90;;;11.77;65.22;100430.03;4992592;28;20411;-71
2023/03/17 05:42:41;;;;;;;7.30;6.00;;;11.50;99.90;;;12.11;64.89;100442.72;4992825;28;20182;-71
2023/03/17 05:45:11;;;;;;;8.18;6.18;;;11.70;99.90;;;12.20;64.44;100464.63;4992630;28;20035;-71
2023/03/17 05:47:42;;;;;;;7.78;6.65;;;11.90;99.90;;;12.20;64.31;100475.25;4993131;28;20451;-72
2023/03/17 05:50:12;;;;;;;8.75;6.45;;;11.90;99.90;;;12.31;64.21;100470.63;4992885;28;20395;-71
2023/03/17 05:52:41;;;;;;;8.30;6.50;;;12.00;99.90;;;12.26;64.17;100453.03;4992054;28;20051;-72
2023/03/17 05:55:10;;;;;;;14.43;7.28;;;12.00;99.90;;;12.24;64.34;100452.19;4992420;28;20054;-72
2023/03/17 05:57:38;;;;;;;6.65;5.97;;;12.00;99.90;;;12.22;64.79;100446.03;4992306;28;20049;-72
2023/03/17 06:00:09;;;;;;;7.32;6.53;;;12.00;99.90;;;12.15;64.74;100420.56;4992598;28;20127;-72
2023/03/17 06:02:41;;;;;;;7.47;6.65;;;12.00;99.90;;;12.09;64.96;100418.91;4992370;28;20129;-71
2023/03/17 06:05:10;;;;;;;7.63;6.47;;;11.90;99.90;;;12.07;64.95;100433.06;4992137;28;20161;-71
2023/03/17 06:07:40;;;;;;;7.20;6.35;;;11.90;99.90;;;12.09;64.97;100453.34;4992036;28;20074;-72
2023/03/17 06:10:22;;;;;;;7.18;6.38;;;11.90;99.90;;;11.91;65.43;100458.06;4991923;28;20042;-71
2023/03/17 06:12:50;;;;;;;8.55;6.70;;;11.80;99.90;;;11.78;65.62;100449.47;4991953;28;20121;-71
2023/03/17 06:15:18;;;;;;;9.05;7.10;;;11.70;99.90;;;11.84;65.83;100459.97;4992115;28;20050;-72
2023/03/17 06:17:48;;;;;;;8.77;6.68;;;11.70;99.90;;;11.87;65.96;100475.81;4991991;28;20451;-72
2023/03/17 06:20:17;;;;;;;8.75;7.30;;;11.70;99.90;;;11.90;66.07;100466.94;4992047;28;20077;-72
2023/03/17 06:22:46;;;;;;;10.85;7.22;;;11.70;99.90;;;11.96;66.02;100469.50;4992198;28;20384;-71
2023/03/17 06:25:31;;;;;;;7.40;6.68;;;11.70;99.90;;;11.74;66.36;100456.59;4991760;28;20050;-72
2023/03/17 06:28:02;;;;;;;10.05;6.32;;;11.60;99.90;;;11.59;66.84;100456.75;4991728;28;20038;-71
2023/03/17 06:30:31;;;;;;;;;;;11.40;99.90;;;11.44;67.06;100441.09;4992425;28;20042;-72
2023/03/17 06:33:02;;;;;;;7.03;6.32;;;11.40;99.90;;;11.46;67.40;100439.31;4991796;28;20374;-71
2023/03/17 06:35:31;;;;;;;10.48;6.80;;;11.40;99.90;;;11.63;67.12;100460.28;4991802;28;20085;-72
2023/03/17 06:38:01;;;;;;;8.95;6.40;;;11.50;99.90;;;11.75;67.20;100463.63;4992337;28;20053;-71
2023/03/17 06:40:30;;;;;;;7.05;6.35;;;11.60;99.90;;;11.80;66.90;100458.25;4990536;28;20046;-71
2023/03/17 06:43:00;;;;;;;10.07;7.07;;;11.60;99.90;;;11.78;67.19;100463.59;4991855;28;20137;-72
2023/03/17 06:45:28;;;;;;;9.82;6.80;;;11.60;99.90;;;11.95;66.94;100468.59;4991734;28;20740;-71
2023/03/17 06:47:57;;;;;;;8.35;6.78;;;11.70;99.90;;;12.07;66.48;100465.75;4989988;28;20066;-72
2023/03/17 06:50:27;;;;;;;7.63;6.50;;;11.80;99.90;;;12.27;66.11;100482.19;4991678;28;20035;-72
2023/03/17 06:52:55;;;;;;;18.95;6.53;;;12.00;99.90;;;12.47;65.58;100476.53;4992073;28;20049;-72
2023/03/17 06:55:24;;;;;;;11.80;6.70;;;12.20;99.90;;;12.43;65.35;100485.44;4991637;28;20475;-72
2023/03/17 06:57:53;;;;;;;11.35;7.13;;;12.20;99.90;;;11.74;65.36;100382.41;4990427;28;20054;-71
2023/03/17 07:00:22;;;;;;;9.05;6.60;;;12.20;99.90;;;12.36;65.28;100478.50;4991684;28;20038;-71
2023/03/17 07:02:51;;;;;;;9.15;6.68;;;12.10;99.90;;;12.06;65.81;100484.34;4991540;28;20133;-71
2023/03/17 07:05:19;;;;;;;7.70;6.75;;;11.90;99.90;;;11.89;66.29;100484.59;4993140;28;20129;-71
2023/03/17 07:07:49;;;;;;;8.07;6.18;;;11.60;99.90;;;11.61;66.60;100447.03;4995266;28;20038;-70
2023/03/17 07:10:18;;;;;;;11.77;7.30;;;11.60;99.90;;;11.58;67.01;100455.03;4995526;28;20097;-71
2023/03/17 07:12:47;;;;;;;9.38;6.57;;;11.40;99.90;;;10.78;68.57;100381.19;4994972;28;20057;-74
2023/03/17 07:15:17;;;;;;;9.73;6.60;;;11.10;99.90;;;11.25;69.34;100471.41;4995425;28;20050;-71
2023/03/17 07:17:46;;;;;;;13.73;7.40;;;10.90;99.90;;;11.41;69.31;100472.94;4995200;28;20038;-70
2023/03/17 07:20:15;;;;;;;10.60;7.30;;;11.10;99.90;;;11.24;69.52;100460.84;4995150;28;20396;-72
2023/03/17 07:22:46;;;;;;;8.40;7.15;;;11.00;99.90;;;11.13;69.76;100473.34;4995388;28;20073;-75
2023/03/17 07:25:18;;;;;;;16.05;7.88;;;10.90;99.90;;;11.11;69.89;100486.59;4994853;28;20038;-76
2023/03/17 07:27:50;;;;;;;10.43;7.35;;;10.80;99.90;;;11.39;69.82;100501.22;4995437;28;20038;-77
2023/03/17 07:30:20;;;;;;;9.27;7.18;;;11.00;99.90;;;11.53;69.78;100515.16;4995169;28;20042;-71
2023/03/17 07:32:49;;;;;;;8.40;6.68;;;11.20;99.90;;;11.71;69.46;100493.72;4994835;28;20046;-74
2023/03/17 07:35:18;;;;;;;12.13;7.57;;;11.50;99.90;;;12.01;69.08;100491.47;4994716;28;20054;-73
2023/03/17 07:37:47;;;;;;;9.85;7.65;;;11.70;99.90;;;12.11;68.74;100490.44;4994599;28;20039;-71
2023/03/17 07:40:17;;;;;;;10.73;7.90;;;11.90;99.90;;;12.29;68.61;100496.28;4994684;28;20456;-72
2023/03/17 07:42:47;;;;;;;11.67;8.73;;;12.00;99.90;;;12.33;67.98;100495.34;4995076;28;20054;-72
2023/03/17 07:45:16;;;;;;;13.88;8.65;;;12.10;99.90;;;12.41;67.71;100493.44;4993171;28;20120;-72
2023/03/17 07:47:45;;;;;;;8.60;7.55;;;12.20;99.90;;;12.43;67.38;100490.75;4994320;28;20157;-73
2023/03/17 07:50:14;;;;;;;14.27;8.07;;;12.20;99.90;;;12.30;67.62;100478.59;4994958;28;20133;-72
2023/03/17 07:52:42;;;;;;;14.70;8.63;;;12.20;99.90;;;12.53;67.47;100497.63;4993544;28;20141;-72
2023/03/17 07:55:11;;;;;;;12.65;8.48;;;12.30;99.90;;;12.62;68.03;100486.84;4994439;28;20093;-73
2023/03/17 07:57:40;;;;;;;11.95;8.02;;;12.50;99.90;;;12.69;68.20;100477.88;4994576;28;20046;-72
2023/03/17 08:00:12;;;;;;;10.00;8.27;;;12.70;99.90;;;13.01;67.73;100495.81;4994273;28;20038;-72
2023/03/17 08:02:41;;;;;;;10.23;7.45;;;12.80;99.90;;;13.31;68.27;100489.91;4992754;28;20042;-71
2023/03/17 08:05:10;;;;;;;9.50;8.05;;;13.00;99.90;;;13.76;67.54;100496.84;4994026;28;20042;-75
2023/03/17 08:07:39;;;;;;;13.23;8.27;;;13.50;99.90;;;14.08;66.33;100490.75;4994213;28;20522;-72
2023/03/17 08:10:11;;;;;;;10.25;8.10;;;13.80;99.90;;;14.15;64.70;100474.59;4993996;28;20043;-70
2023/03/17 08:12:41;;;;;;;10.32;7.88;;;14.00;99.90;;;14.47;64.22;100489.78;4993866;28;20042;-72
2023/03/17 08:15:11;;;;;;;29.92;8.73;;;14.20;99.90;;;14.45;63.36;100494.25;4993737;28;20141;-71
2023/03/17 08:17:40;;;;;;;10.70;7.97;;;14.40;99.90;;;14.63;63.08;100496.44;4992163;28;20156;-74
2023/03/17 08:20:11;;;;;;;11.00;8.20;;;14.40;99.90;;;14.92;61.88;100499.19;4993673;28;20078;-70
2023/03/17 08:22:39;;;;;;;;;;;14.60;99.90;;;14.88;60.20;100510.84;4993935;28;20062;-71
2023/03/17 08:25:10;;;;;;;12.52;8.55;;;14.70;99.90;;;14.82;60.64;100503.00;4993488;28;19928;-72
2023/03/17 08:27:39;;;;;;;;;;;14.50;99.90;;;14.83;61.15;100510.06;4994072;28;20058;-72
2023/03/17 08:30:11;;;;;;;14.35;8.43;;;14.60;99.90;;;15.01;60.58;100501.56;4991971;28;19926;-73
2023/03/17 08:32:40;;;;;;;15.75;9.20;;;14.70;99.90;;;15.33;59.96;100514.81;4993247;28;20062;-72
2023/03/17 08:35:14;;;;;;;8.82;7.60;;;15.10;99.90;;;15.70;59.40;100521.78;4993437;28;20042;-70
2023/03/17 08:37:43;;;;;;;10.93;8.10;;;15.40;99.90;;;15.95;57.98;100520.94;4993300;28;20050;-69
2023/03/17 08:40:16;;;;;;;10.55;8.40;;;15.70;99.90;;;16.18;57.11;100521.06;4991648;28;20132;-68
2023/03/17 08:42:45;;;;;;;11.43;8.65;;;16.00;99.90;;;16.51;56.47;100516.41;4993226;28;20142;-70
2023/03/17 08:45:17;;;;;;;9.07;7.38;;;16.30;99.90;;;16.74;54.91;100521.84;4993081;28;20046;-68
2023/03/17 08:47:46;;;;;;;11.30;7.05;;;16.50;99.90;;;16.96;54.46;100520.16;4992940;28;20133;-69
2023/03/17 08:50:18;;;;;;;11.20;7.65;;;16.80;99.90;;;17.24;54.49;100527.16;4992875;28;20046;-70
2023/03/17 08:52:48;;;;;;;10.93;7.28;;;17.00;99.90;;;17.37;54.17;100528.44;4992962;28;20117;-71
2023/03/17 08:55:18;;;;;;;11.65;7.78;;;17.20;99.90;;;17.50;53.60;100532.47;4993023;28;20125;-71
2023/03/17 08:57:47;;;;;;;11.60;6.88;;;17.30;99.90;;;17.41;53.43;100509.56;4993787;28;20034;-71
2023/03/17 09:00:20;;;;;;;11.40;7.55;;;17.30;99.90;;;17.48;52.92;100531.63;4993350;28;20125;-71
2023/03/17 09:02:49;;;;;;;9.75;7.53;;;17.30;99.90;;;17.64;53.45;100547.03;4993363;28;20050;-71
2023/03/17 09:05:18;;;;;;;8.85;7.65;;;17.40;99.90;;;17.63;53.05;100563.16;4992955;28;20038;-71
2023/03/17 09:07:47;;;;;;;9.45;8.07;;;17.40;99.90;;;17.61;53.23;100548.97;4992862;28;20041;-71
2023/03/17 09:10:21;;;;;;;9.75;7.70;;;17.40;99.90;;;17.60;53.10;100563.25;4992730;28;20500;-71
2023/03/17 09:12:50;;;;;;;12.55;8.07;;;17.30;99.90;;;17.16;53.06;100471.31;4992619;28;20451;-71
2023/03/17 09:15:20;;;;;;;10.40;7.82;;;17.40;99.90;;;17.92;53.13;100565.56;4992686;28;20041;-73
2023/03/17 09:17:49;;;;;;;11.10;8.38;;;17.60;99.90;;;18.00;52.44;100563.47;4992739;28;20046;-73
2023/03/17 09:20:19;;;;;;;10.63;8.07;;;17.70;99.90;;;18.11;52.00;100563.91;4992412;28;20134;-73
2023/03/17 09:22:48;;;;;;;15.07;8.20;;;17.80;99.90;;;18.21;51.54;100546.56;4992477;28;20046;-73
2023/03/17 09:25:17;;;;;;;10.30;7.63;;;18.00;99.90;;;18.37;51.58;100563.72;4992322;28;20060;-73
2023/03/17 09:27:46;;;;;;;11.77;8.18;;;18.00;99.90;;;18.57;51.08;100577.19;4991629;28;20094;-73
2023/03/17 09:30:15;;;;;;;7.80;7.00;;;18.20;99.90;;;18.37;51.15;100553.00;4992313;28;20039;-70
2023/03/17 09:32:45;;;;;;;11.77;7.93;;;18.20;99.90;;;17.79;51.21;100497.41;4992139;28;20074;-74
2023/03/17 09:35:13;;;;;;;9.60;7.40;;;18.00;99.90;;;18.02;51.32;100569.66;4992909;28;20042;-73
2023/03/17 09:37:42;;;;;;;12.93;7.68;;;17.80;99.90;;;17.90;52.03;100579.00;4992222;28;20375;-73
2023/03/17 09:40:16;;;;;;;9.90;7.65;;;17.60;99.90;;;17.77;52.73;100582.19;4992269;28;20492;-73
2023/03/17 09:42:58;;;;;;;11.15;8.23;;;17.50;99.90;;;17.62;52.85;100588.13;4992146;28;20066;-74
2023/03/17 09:45:32;;;;;;;14.50;7.57;;;17.30;99.90;;;17.32;53.19;100568.75;4991975;28;20105;-74
2023/03/17 09:48:21;;;;;;;10.93;7.35;;;17.00;99.90;;;17.16;53.83;100578.25;4990682;28;20441;-73
2023/03/17 09:50:57;;;;;;;12.45;8.65;;;16.80;99.90;;;17.09;55.13;100596.28;4992091;28;20046;-74
2023/03/17 09:53:32;;;;;;;12.07;7.57;;;16.80;99.90;;;17.04;55.22;100589.38;4990500;28;20046;-74
2023/03/17 09:56:08;;;;;;;10.20;7.72;;;16.70;99.90;;;17.09;55.59;100612.31;4992063;28;20046;-73
2023/03/17 09:58:37;;;;;;;12.20;8.07;;;16.70;99.90;;;17.20;55.95;100608.41;4992052;28;20046;-74
2023/03/17 10:01:08;;;;;;;12.18;8.70;;;16.80;99.90;;;17.23;55.91;100616.34;4991992;28;20046;-73
2023/03/17 10:03:38;;;;;;;11.15;8.15;;;16.90;99.90;;;17.20;54.91;100613.75;4992191;28;20046;-73
2023/03/17 10:06:28;;;;;;;11.02;7.57;;;16.90;99.90;;;17.24;54.89;100608.25;4990641;28;20517;-74
2023/03/17 10:09:03;;;;;;;15.07;8.18;;;16.90;99.90;;;17.23;55.11;100601.13;4990668;28;20050;-73
2023/03/17 10:11:40;;;;;;;10.73;7.82;;;16.90;99.90;;;17.15;54.79;100608.56;4991921;28;20057;-73
2023/03/17 10:14:27;;;;;;;12.30;7.72;;;16.80;99.90;;;17.09;55.74;100600.78;4991882;28;20097;-73
2023/03/17 10:17:01;;;;;;;12.25;8.20;;;16.70;99.90;;;17.09;56.05;100600.78;4992120;28;20061;-73
2023/03/17 10:19:35;;;;;;;10.95;8.73;;;16.70;99.90;;;16.96;56.06;100592.31;4991845;28;20051;-73
2023/03/17 10:22:14;;;;;;;11.70;8.45;;;16.60;99.90;;;17.01;57.21;100598.34;4991867;28;20484;-71
2023/03/17 10:24:50;;;;;;;11.52;8.00;;;16.60;99.90;;;17.09;57.13;100606.13;4991649;28;20093;-67
2023/03/17 10:27:19;;;;;;;11.95;8.05;;;16.70;99.90;;;17.09;57.06;100593.59;4990332;28;20105;-68
2023/03/17 10:29:48;;;;;;;11.45;8.75;;;16.70;99.90;;;17.05;56.68;100597.31;4991527;28;20126;-66
2023/03/17 10:32:16;;;;;;;10.85;8.00;;;16.70;99.90;;;17.09;56.90;100592.75;4991432;28;20050;-66
2023/03/17 10:34:48;;;;;;;11.73;8.23;;;16.70;99.90;;;17.05;56.98;100597.31;4991502;28;20070;-66